Time;durP1;ratioP1;P1;durP2;ratioP2;P2;SDS_P1;SDS_P2;PMS_P1;PMS_P2;Temp;Humidity;BMP_temperature;BMP_pressure;BME280_temperature;BME280_humidity;BME280_pressure;Samples;Min_cycle;Max_cycle;Signal;HPM_P1;HPM_P2
2022/05/13 00:00:08;;;;;;;12.82;6.30;;;;;;;;;;6138265;23;20169;-91
2022/05/13 00:03:13;;;;;;;11.55;6.55;;;;;;;;;;6139363;23;20213;-89
2022/05/13 00:06:18;;;;;;;9.50;6.35;;;;;;;;;;6137336;23;20169;-90
2022/05/13 00:09:56;;;;;;;10.73;6.90;;;;;;;;;;6138008;23;20196;-90
2022/05/13 00:12:50;;;;;;;13.45;7.00;;;;;;;;;;6139141;23;20168;-90
2022/05/13 00:15:55;;;;;;;10.10;6.13;;;;;;;;;;6137530;23;20226;-89
2022/05/13 00:19:01;;;;;;;13.02;6.57;;;;;;;;;;6140345;23;20209;-88
2022/05/13 00:22:06;;;;;;;9.18;5.88;;;;;;;;;;6139219;23;20277;-89
2022/05/13 00:25:13;;;;;;;14.25;6.72;;;;;;;;;;6140111;23;20181;-89
2022/05/13 00:28:18;;;;;;;10.98;6.22;;;;;;;;;;6140774;23;20169;-90
2022/05/13 00:31:24;;;;;;;14.00;6.43;;;;;;;;;;6140819;23;20173;-89
2022/05/13 00:34:29;;;;;;;11.30;5.53;;;;;;;;;;6140730;23;20160;-88
2022/05/13 00:37:34;;;;;;;12.57;5.95;;;;;;;;;;6141614;23;20169;-90
2022/05/13 00:40:42;;;;;;;12.13;6.05;;;;;;;;;;6140902;23;20193;-90
2022/05/13 00:43:51;;;;;;;11.20;5.88;;;;;;;;;;6140361;23;20177;-90
2022/05/13 00:46:56;;;;;;;14.13;5.70;;;;;;;;;;6123602;23;20165;-89
2022/05/13 00:50:02;;;;;;;8.18;4.60;;;;;;;;;;6139567;23;20185;-89
2022/05/13 00:53:07;;;;;;;11.52;4.80;;;;;;;;;;6140276;23;20156;-90
2022/05/13 00:56:14;;;;;;;8.90;4.80;;;;;;;;;;6140340;23;20220;-88
2022/05/13 00:59:24;;;;;;;13.52;5.70;;;;;;;;;;6139681;23;20177;-90
2022/05/13 01:02:32;;;;;;;11.50;4.60;;;;;;;;;;6122252;23;20171;-88
2022/05/13 01:05:37;;;;;;;11.40;4.60;;;;;;;;;;6139726;23;20169;-90
2022/05/13 01:08:42;;;;;;;9.85;4.72;;;;;;;;;;6139611;23;20169;-91
2022/05/13 01:11:50;;;;;;;7.22;4.57;;;;;;;;;;6139909;23;20176;-88
2022/05/13 01:14:57;;;;;;;10.00;4.80;;;;;;;;;;6140071;23;20281;-89
2022/05/13 01:18:08;;;;;;;8.55;4.97;;;;;;;;;;6141026;23;20153;-89
2022/05/13 01:21:16;;;;;;;12.10;5.15;;;;;;;;;;6140455;23;20157;-90
2022/05/13 01:24:23;;;;;;;9.57;4.88;;;;;;;;;;6139850;23;20241;-89
2022/05/13 01:27:28;;;;;;;8.23;4.80;;;;;;;;;;6138331;23;20184;-89
2022/05/13 01:30:34;;;;;;;11.02;5.50;;;;;;;;;;6141409;23;20192;-90
2022/05/13 01:39:32;;;;;;;12.95;5.15;;;;;;;;;;6194816;23;20207;-90
2022/05/13 01:42:37;;;;;;;10.60;4.93;;;;;;;;;;6230442;23;20163;-90
2022/05/13 01:45:43;;;;;;;10.98;5.30;;;;;;;;;;6231077;23;20210;-90
2022/05/13 01:48:48;;;;;;;8.55;4.95;;;;;;;;;;6230152;23;20226;-89
2022/05/13 02:53:31;;;;;;;12.88;6.38;;;;;;;;;;6165265;23;20216;-88
2022/05/13 02:59:33;;;;;;;14.82;6.90;;;;;;;;;;6196276;23;20659;-89
2022/05/13 03:02:38;;;;;;;13.15;7.05;;;;;;;;;;6231836;23;20163;-90
2022/05/13 03:05:44;;;;;;;13.23;6.95;;;;;;;;;;6233437;23;20238;-89
2022/05/13 03:08:52;;;;;;;19.35;8.10;;;;;;;;;;6232820;23;20228;-89
2022/05/13 03:11:57;;;;;;;17.83;8.13;;;;;;;;;;6215888;23;20200;-90
2022/05/13 03:15:02;;;;;;;13.23;7.05;;;;;;;;;;6231307;23;20211;-89
2022/05/13 03:18:07;;;;;;;13.55;7.38;;;;;;;;;;6236003;22;20154;-89
2022/05/13 03:21:14;;;;;;;14.45;7.22;;;;;;;;;;6234132;23;20167;-90
2022/05/13 03:24:21;;;;;;;15.43;7.70;;;;;;;;;;6218694;23;20195;-91
2022/05/13 03:27:28;;;;;;;16.73;7.10;;;;;;;;;;6217934;23;20183;-90
2022/05/13 03:30:34;;;;;;;14.27;8.38;;;;;;;;;;6233813;23;20199;-89
2022/05/13 03:33:41;;;;;;;14.18;6.90;;;;;;;;;;6217624;23;20160;-89
2022/05/13 03:36:49;;;;;;;13.48;7.45;;;;;;;;;;6233238;23;20182;-90
2022/05/13 03:39:55;;;;;;;17.33;7.70;;;;;;;;;;6235529;23;20206;-90
2022/05/13 03:43:01;;;;;;;14.70;7.70;;;;;;;;;;6232179;23;20167;-90
2022/05/13 03:46:07;;;;;;;12.40;7.72;;;;;;;;;;6215914;23;20148;-89
2022/05/13 03:49:12;;;;;;;17.73;6.88;;;;;;;;;;6235196;23;20164;-89
2022/05/13 03:52:17;;;;;;;18.33;8.20;;;;;;;;;;6217962;23;20174;-89
2022/05/13 03:55:24;;;;;;;16.63;8.05;;;;;;;;;;6234164;23;20168;-90
2022/05/13 03:58:30;;;;;;;13.57;7.90;;;;;;;;;;6232123;23;20166;-91
2022/05/13 04:09:16;;;;;;;19.20;7.90;;;;;;;;;;6232291;23;20151;-92
2022/05/13 04:16:07;;;;;;;18.88;9.05;;;;;;;;;;6233024;23;20244;-90
2022/05/13 04:19:15;;;;;;;14.43;9.02;;;;;;;;;;6232286;23;20230;-89
2022/05/13 04:22:20;;;;;;;19.08;8.80;;;;;;;;;;6231163;23;20171;-90
2022/05/13 04:25:26;;;;;;;14.27;7.95;;;;;;;;;;6231976;23;20199;-90
2022/05/13 04:28:33;;;;;;;12.88;8.35;;;;;;;;;;6231608;23;20162;-92
2022/05/13 04:31:38;;;;;;;19.60;9.90;;;;;;;;;;6229343;23;20253;-90
2022/05/13 04:34:44;;;;;;;22.30;11.65;;;;;;;;;;6230909;23;20235;-91
2022/05/13 04:37:49;;;;;;;20.92;10.32;;;;;;;;;;6213789;23;20163;-89
2022/05/13 04:40:55;;;;;;;17.75;10.65;;;;;;;;;;6212909;23;20150;-90
2022/05/13 04:44:01;;;;;;;18.13;9.27;;;;;;;;;;6196735;23;20167;-90
2022/05/13 04:48:15;;;;;;;19.10;9.48;;;;;;;;;;6212950;23;20162;-89
2022/05/13 04:50:34;;;;;;;14.75;9.40;;;;;;;;;;6230266;23;20353;-90
2022/05/13 04:53:40;;;;;;;18.70;8.77;;;;;;;;;;6210534;23;20211;-90
2022/05/13 04:56:45;;;;;;;19.50;9.38;;;;;;;;;;6212188;23;20148;-89
2022/05/13 04:59:53;;;;;;;17.02;9.52;;;;;;;;;;6213095;23;20195;-90
2022/05/13 05:02:58;;;;;;;17.80;9.70;;;;;;;;;;6230397;23;20211;-90
2022/05/13 05:06:05;;;;;;;23.75;9.13;;;;;;;;;;6213653;23;20530;-89
